Louisbourg, Canada
Current Conditions -  °F | °C
As of 1:00 AM on Tuesday 27 Jan 2015 (Local Time) from CYQY Reporting Station
Broken Clouds Broken Clouds  
Wind Chill:   Ceiling: 2100
Heat Index:   Visibility: 15mi
Dew Point:   Wind: 0mph
Humidity: 85%   Direction: NA
Pressure: 30.37"   Gusts: NA
Location:  45.92°N, 59.98°W
Report Text: CYQY 270500Z 00000KT 15SM BKN021 BKN210 M14/M16 A3037 RMK SC5CI1 SLP290
Loading
Personal Weather Stations






























Interactive Weather Map New forecast layout! Learn more

10-Day Weather Forecast

Advertisements
Track Severe Weather on mobile